Impacts METAR Board INFO
IDs:

KDCA - Washington/National, VA, US

Updated at: 1543 UTC 17 Dec 2017
Potential Impact None Slight Moderate High
Time17/03Z 17/04Z 17/05Z 17/06Z 17/07Z 17/08Z 17/09Z 17/10Z 17/11Z 17/12Z 17/13Z 17/14Z 17/15Z
VIS10 10 10 10 10 10 10 10 10 10 10 10 10
CIG-- -- -- -- -- -- -- -- 200 150 150 200 250
CoverCLRCLRCLRFEWFEWFEWFEWSCTBKNOVCOVCBKNBKN
FltCatVFRVFRVFRVFRVFRVFRVFRVFRVFRVFRVFRVFRVFR
WX--------------------------
WDir1902100001700200220001800
WSpd4 3 0 0 0 3 0 4 3 0 0 3 0
WGst-- -- -- -- -- -- -- -- -- -- -- -- --
Raw hourly METARs
KDCA 170252Z 19004KT 10SM CLR 04/M03 A3019 RMK AO2 SLP223 T00391033 51014
KDCA 170352Z 21003KT 10SM CLR 03/M02 A3021 RMK AO2 SLP228 T00281022
KDCA 170452Z 00000KT 10SM CLR 02/M03 A3022 RMK AO2 SLP233 T00221028 400891039
KDCA 170552Z 00000KT 10SM FEW200 02/M02 A3022 RMK AO2 SLP231 T00171022 10050 20011 50008
KDCA 170652Z 00000KT 10SM FEW200 00/M03 A3023 RMK AO2 SLP237 T00001033
KDCA 170752Z 17003KT 10SM FEW200 00/M02 A3025 RMK AO2 SLP243 T00001022
KDCA 170852Z 00000KT 10SM FEW200 00/M03 A3025 RMK AO2 SLP241 T00001033 50010
KDCA 170952Z 20004KT 10SM SCT200 01/M03 A3024 RMK AO2 SLP239 T00061028
KDCA 171052Z 22003KT 10SM BKN200 M01/M03 A3025 RMK AO2 SLP241 T10061033
KDCA 171152Z 00000KT 10SM BKN150 OVC200 01/M03 A3026 RMK AO2 SLP245 T00061028 10022 21011 53004
KDCA 171252Z 00000KT 10SM BKN150 OVC200 01/M02 A3028 RMK AO2 SLP251 T00111017
KDCA 171352Z 18003KT 10SM SCT120 BKN200 02/M01 A3028 RMK AO2 SLP253 T00221006
KDCA 171452Z 00000KT 10SM SCT120 BKN250 04/M01 A3026 RMK AO2 SLP246 T00441006 50001